createdAt,value
2024-03-14T00:01:14.951Z,10.11
2024-03-14T00:06:18.726Z,10.05
2024-03-14T00:11:21.756Z,10.02
2024-03-14T00:16:22.983Z,10.04
2024-03-14T00:21:24.404Z,10.05
2024-03-14T00:26:25.740Z,10.05
2024-03-14T00:31:27.497Z,10.05
2024-03-14T00:36:28.942Z,10.01
2024-03-14T00:41:30.224Z,9.98
2024-03-14T00:46:34.322Z,10.01
2024-03-14T00:51:35.628Z,9.98
2024-03-14T00:56:37.191Z,9.99
2024-03-14T01:01:38.425Z,9.98
2024-03-14T01:06:39.714Z,9.99
2024-03-14T01:11:41.343Z,10.04
2024-03-14T01:16:42.611Z,10.04
2024-03-14T01:21:44.701Z,10.02
2024-03-14T01:26:46.013Z,9.99
2024-03-14T01:31:47.379Z,9.99
2024-03-14T01:36:48.600Z,9.98
2024-03-14T01:41:51.027Z,9.95
2024-03-14T01:46:52.274Z,9.91
2024-03-14T01:51:54.075Z,9.92
2024-03-14T01:57:01.865Z,9.91
2024-03-14T02:02:03.111Z,9.92
2024-03-14T02:07:04.349Z,9.91
2024-03-14T02:12:06.300Z,9.90
2024-03-14T02:17:07.764Z,9.88
2024-03-14T02:22:09.326Z,9.87
2024-03-14T02:27:10.877Z,9.85
2024-03-14T02:32:12.206Z,9.85
2024-03-14T02:37:13.827Z,9.81
2024-03-14T02:42:15.181Z,9.81
2024-03-14T02:47:18.496Z,9.80
2024-03-14T02:52:19.761Z,9.80
2024-03-14T02:57:21.231Z,9.75
2024-03-14T03:02:22.473Z,9.61
2024-03-14T03:07:23.831Z,9.48
2024-03-14T03:12:25.136Z,9.33
2024-03-14T03:17:27.244Z,9.19
2024-03-14T03:22:48.471Z,9.09
2024-03-14T03:27:49.680Z,9.01
2024-03-14T03:32:51.641Z,8.85
2024-03-14T03:37:52.983Z,8.81
2024-03-14T03:42:54.999Z,8.69
2024-03-14T03:47:56.683Z,8.67
2024-03-14T03:52:57.943Z,8.61
2024-03-14T03:57:59.167Z,8.57
2024-03-14T04:03:00.559Z,8.55
2024-03-14T04:08:01.864Z,8.48
2024-03-14T04:13:05.962Z,8.45
2024-03-14T04:18:07.853Z,8.45
2024-03-14T04:23:09.360Z,8.45
2024-03-14T04:28:10.643Z,8.41
2024-03-14T04:33:11.949Z,8.43
2024-03-14T04:38:13.843Z,8.41
2024-03-14T04:43:15.056Z,8.37
2024-03-14T04:48:17.563Z,8.32
2024-03-14T04:53:18.906Z,8.23
2024-03-14T04:58:21.739Z,8.20
2024-03-14T05:03:24.086Z,8.13
2024-03-14T05:08:25.689Z,8.12
2024-03-14T05:13:29.000Z,8.03
2024-03-14T05:18:30.776Z,8.00
2024-03-14T05:23:32.218Z,7.94
2024-03-14T05:28:33.441Z,7.92
2024-03-14T05:33:36.759Z,7.83
2024-03-14T05:38:38.276Z,7.82
2024-03-14T05:43:39.487Z,7.81
2024-03-14T05:48:40.756Z,7.82
2024-03-14T05:53:42.059Z,7.79
2024-03-14T05:58:45.525Z,7.75
2024-03-14T06:03:47.285Z,7.75
2024-03-14T06:08:49.472Z,7.71
2024-03-14T06:13:51.828Z,7.72
2024-03-14T06:18:53.104Z,7.65
2024-03-14T06:23:56.678Z,7.65
2024-03-14T06:28:57.888Z,7.65
2024-03-14T06:33:59.217Z,7.66
2024-03-14T06:39:00.557Z,7.62
2024-03-14T06:44:02.245Z,7.61
2024-03-14T06:49:05.479Z,7.66
2024-03-14T06:54:07.120Z,7.69
2024-03-14T06:59:09.188Z,7.73
2024-03-14T07:04:10.642Z,7.81
2024-03-14T07:09:18.631Z,7.93
2024-03-14T07:14:20.563Z,8.19
2024-03-14T07:19:22.555Z,8.50
2024-03-14T07:24:24.209Z,8.91
2024-03-14T07:29:26.299Z,9.24
2024-03-14T07:34:27.516Z,9.51
2024-03-14T07:39:30.790Z,9.70
2024-03-14T07:44:33.809Z,9.84
2024-03-14T07:49:36.585Z,9.90
2024-03-14T07:54:38.096Z,9.94
2024-03-14T07:59:39.351Z,10.01
2024-03-14T08:04:42.630Z,10.18
2024-03-14T08:09:43.973Z,10.43
2024-03-14T08:14:45.319Z,10.67
2024-03-14T08:19:46.606Z,10.81
2024-03-14T08:24:48.619Z,10.89
2024-03-14T08:29:49.957Z,10.90
2024-03-14T08:34:52.979Z,10.87
2024-03-14T08:39:54.646Z,11.03
2024-03-14T08:44:58.516Z,11.17
2024-03-14T08:50:00.491Z,11.34
2024-03-14T08:55:06.231Z,11.68
2024-03-14T09:00:07.559Z,11.90
2024-03-14T09:05:13.028Z,11.89
2024-03-14T09:10:17.282Z,11.83
2024-03-14T09:15:19.863Z,11.99
2024-03-14T09:20:21.751Z,12.48
2024-03-14T09:25:23.189Z,12.91
2024-03-14T09:30:24.468Z,13.29
2024-03-14T09:35:29.264Z,13.92
2024-03-14T09:40:30.981Z,14.42
2024-03-14T09:45:32.223Z,14.79
2024-03-14T09:50:33.491Z,14.65
2024-03-14T09:55:34.715Z,14.97
2024-03-14T10:00:36.014Z,15.51
2024-03-14T10:05:39.580Z,16.13
2024-03-14T10:10:41.173Z,16.31
2024-03-14T10:15:43.223Z,17.37
2024-03-14T10:20:44.526Z,18.08
2024-03-14T10:25:51.575Z,17.27
2024-03-14T10:31:02.701Z,17.94
2024-03-14T10:36:04.069Z,18.26
2024-03-14T10:41:07.170Z,17.93
2024-03-14T10:46:08.749Z,17.69
2024-03-14T10:51:10.095Z,17.77
2024-03-14T10:56:13.061Z,17.64
2024-03-14T11:01:14.918Z,17.93
2024-03-14T11:06:16.239Z,18.70
2024-03-14T11:11:17.599Z,17.59
2024-03-14T11:16:19.126Z,17.12
2024-03-14T11:21:21.088Z,17.42
2024-03-14T11:26:23.314Z,16.89
2024-03-14T11:31:24.541Z,16.61
2024-03-14T11:36:26.468Z,17.80
2024-03-14T11:41:27.704Z,18.51
2024-03-14T11:46:30.365Z,19.17
2024-03-14T11:51:32.534Z,19.23
2024-03-14T11:56:35.259Z,19.31
2024-03-14T12:01:47.332Z,19.59
2024-03-14T12:06:52.202Z,19.57
2024-03-14T12:11:53.492Z,19.39
2024-03-14T12:16:54.787Z,19.54
2024-03-14T12:21:56.159Z,19.71
2024-03-14T12:26:58.545Z,19.82
2024-03-14T12:32:01.181Z,19.79
2024-03-14T12:37:02.879Z,19.81
2024-03-14T12:42:04.183Z,19.78
2024-03-14T12:47:05.401Z,19.68
2024-03-14T12:52:06.756Z,19.66
2024-03-14T12:57:08.274Z,19.52
2024-03-14T13:02:09.884Z,19.72
2024-03-14T13:07:12.214Z,19.75
2024-03-14T13:12:13.563Z,19.68
2024-03-14T13:17:14.947Z,19.71
2024-03-14T13:22:16.689Z,19.73
2024-03-14T13:27:19.482Z,19.86
2024-03-14T13:32:22.660Z,19.66
2024-03-14T13:37:23.910Z,19.18
2024-03-14T13:42:25.234Z,19.15
2024-03-14T13:47:29.753Z,19.32
2024-03-14T13:52:36.222Z,19.44
2024-03-14T13:57:37.903Z,19.41
2024-03-14T14:02:39.151Z,19.28
2024-03-14T14:07:44.688Z,19.24
2024-03-14T14:12:52.294Z,19.13
2024-03-14T14:17:53.551Z,19.14
2024-03-14T14:22:56.166Z,19.13
2024-03-14T14:27:57.444Z,19.14
2024-03-14T14:32:58.778Z,19.17
2024-03-14T14:38:00.173Z,19.13
2024-03-14T14:43:03.292Z,18.96
2024-03-14T14:48:05.829Z,18.89
2024-03-14T14:53:07.490Z,18.72
2024-03-14T14:58:08.804Z,18.62
2024-03-14T15:03:10.521Z,18.45
2024-03-14T15:08:11.833Z,18.15
2024-03-14T15:13:13.873Z,18.15
2024-03-14T15:18:15.193Z,18.44
2024-03-14T15:23:16.950Z,18.59
2024-03-14T15:28:19.084Z,18.45
2024-03-14T15:33:20.993Z,18.39
2024-03-14T15:38:22.660Z,18.36
2024-03-14T15:43:23.878Z,18.31
2024-03-14T15:48:26.259Z,18.09
2024-03-14T15:53:28.249Z,17.94
2024-03-14T15:58:32.551Z,17.80
2024-03-14T16:03:34.653Z,17.56
2024-03-14T16:08:48.722Z,17.37
2024-03-14T16:13:58.418Z,17.22
2024-03-14T16:18:59.807Z,17.08
2024-03-14T16:24:05.521Z,16.91
2024-03-14T16:29:09.470Z,16.68
2024-03-14T16:34:10.939Z,16.55
2024-03-14T16:39:19.797Z,16.47
2024-03-14T16:44:21.392Z,16.44
2024-03-14T16:49:22.711Z,16.24
2024-03-14T16:54:30.853Z,16.18
2024-03-14T16:59:32.117Z,16.00
2024-03-14T17:04:33.928Z,15.82
2024-03-14T17:09:35.528Z,15.61
2024-03-14T17:14:37.106Z,15.38
2024-03-14T17:19:39.139Z,15.27
2024-03-14T17:24:40.401Z,15.10
2024-03-14T17:29:42.467Z,14.98
2024-03-14T17:34:43.789Z,14.96
2024-03-14T17:39:45.184Z,14.89
2024-03-14T17:44:46.826Z,14.81
2024-03-14T17:49:48.050Z,14.66
2024-03-14T17:54:49.947Z,14.59
2024-03-14T17:59:51.188Z,14.48
2024-03-14T18:04:52.424Z,14.35
2024-03-14T18:09:55.382Z,14.22
2024-03-14T18:14:56.595Z,14.14
2024-03-14T18:19:57.823Z,13.97
2024-03-14T18:24:59.071Z,13.90
2024-03-14T18:30:00.531Z,13.70
2024-03-14T18:35:01.910Z,13.57
2024-03-14T18:40:04.174Z,13.47
2024-03-14T18:45:06.796Z,13.43
2024-03-14T18:50:12.394Z,13.35
2024-03-14T18:55:13.802Z,13.33
2024-03-14T19:00:19.276Z,13.23
2024-03-14T19:05:23.587Z,13.19
2024-03-14T19:10:25.499Z,13.16
2024-03-14T19:15:27.510Z,13.10
2024-03-14T19:20:29.054Z,13.06
2024-03-14T19:25:30.355Z,13.00
2024-03-14T19:30:33.893Z,12.96
2024-03-14T19:35:35.363Z,12.84
2024-03-14T19:40:37.925Z,12.78
2024-03-14T19:45:40.752Z,12.67
2024-03-14T19:50:42.779Z,12.62
2024-03-14T19:55:44.062Z,12.60
2024-03-14T20:00:46.537Z,12.50
2024-03-14T20:05:47.840Z,12.42
2024-03-14T20:10:49.098Z,12.38
2024-03-14T20:15:51.676Z,12.31
2024-03-14T20:20:52.971Z,12.26
2024-03-14T20:25:54.216Z,12.20
2024-03-14T20:30:56.953Z,12.16
2024-03-14T20:35:59.750Z,12.12
2024-03-14T20:41:03.762Z,12.06
2024-03-14T20:46:06.070Z,12.04
2024-03-14T20:51:07.522Z,12.02
2024-03-14T20:56:10.301Z,11.99
2024-03-14T21:01:11.638Z,11.96
2024-03-14T21:06:12.979Z,11.90
2024-03-14T21:11:15.490Z,11.86
2024-03-14T21:16:20.894Z,11.83
2024-03-14T21:21:22.240Z,11.83
2024-03-14T21:26:23.499Z,11.82
2024-03-14T21:31:24.723Z,11.83
2024-03-14T21:36:27.979Z,11.86
2024-03-14T21:41:31.366Z,11.83
2024-03-14T21:46:34.039Z,11.83
2024-03-14T21:51:35.294Z,11.78
2024-03-14T21:56:36.554Z,11.76
2024-03-14T22:01:39.109Z,11.73
2024-03-14T22:06:40.500Z,11.65
2024-03-14T22:11:41.943Z,11.59
2024-03-14T22:16:43.367Z,11.59
2024-03-14T22:21:44.609Z,11.51
2024-03-14T22:26:45.883Z,11.46
2024-03-14T22:31:47.104Z,11.49
2024-03-14T22:36:48.447Z,11.54
2024-03-14T22:41:50.015Z,11.49
2024-03-14T22:46:51.368Z,11.46
2024-03-14T22:51:52.815Z,11.49
2024-03-14T22:56:54.121Z,11.51
2024-03-14T23:01:55.380Z,11.52
2024-03-14T23:06:57.427Z,11.54
2024-03-14T23:11:58.813Z,11.54
2024-03-14T23:17:00.197Z,11.42
2024-03-14T23:22:01.438Z,11.28
2024-03-14T23:27:03.602Z,11.18
2024-03-14T23:32:04.941Z,11.08
2024-03-14T23:37:06.259Z,11.03
2024-03-14T23:42:08.121Z,11.01
2024-03-14T23:47:09.370Z,11.00
2024-03-14T23:52:10.598Z,11.00
2024-03-14T23:57:11.881Z,10.94
